Brutus, Michigan
Current Conditions -  °F | °C
As of 6:12 AM on Wednesday 26 Nov 2014 (Local Time) from KPLN Reporting Station
Overcast Overcast  
Wind Chill: 25°   Ceiling: 3000
Heat Index: 25°   Visibility: 10mi
Dew Point: 22°   Wind: 0mph
Humidity: 88%   Direction: NA
Pressure: 30.16"   Gusts: NA
Location:  45.49°N, 84.78°W
Report Text: KPLN 261112Z AUTO 00000KT 10SM OVC030 M04/M06 A3016 RMK AO2 T10391056
Loading
Personal Weather Stations






























Interactive Weather Map New forecast layout! Learn more

10-Day Weather Forecast

Advertisements
Track Severe Weather on mobile